createdAt,value
2022-11-24T00:01:10.752Z,88.78
2022-11-24T00:03:38.038Z,88.76
2022-11-24T00:06:12.708Z,88.68
2022-11-24T00:08:41.504Z,88.78
2022-11-24T00:11:14.439Z,88.74
2022-11-24T00:13:41.623Z,88.68
2022-11-24T00:16:13.485Z,88.63
2022-11-24T00:18:41.853Z,88.64
2022-11-24T00:21:09.083Z,88.48
2022-11-24T00:23:36.545Z,88.47
2022-11-24T00:26:18.214Z,88.54
2022-11-24T00:28:47.714Z,88.58
2022-11-24T00:31:24.925Z,88.54
2022-11-24T00:33:53.950Z,88.43
2022-11-24T00:36:22.813Z,88.47
2022-11-24T00:38:54.467Z,88.42
2022-11-24T00:41:21.914Z,88.37
2022-11-24T00:43:48.656Z,88.28
2022-11-24T00:46:15.589Z,88.32
2022-11-24T00:48:42.518Z,88.28
2022-11-24T00:51:11.685Z,88.47
2022-11-24T00:53:38.582Z,88.32
2022-11-24T00:56:06.074Z,87.97
2022-11-24T00:58:33.452Z,88.20
2022-11-24T01:01:09.350Z,88.34
2022-11-24T01:03:36.602Z,88.35
2022-11-24T01:06:08.726Z,88.25
2022-11-24T01:08:37.784Z,88.29
2022-11-24T01:11:15.139Z,88.25
2022-11-24T01:13:43.552Z,88.28
2022-11-24T01:16:25.721Z,88.32
2022-11-24T01:18:53.000Z,88.12
2022-11-24T01:21:21.132Z,88.21
2022-11-24T01:23:47.929Z,88.06
2022-11-24T01:26:17.867Z,88.18
2022-11-24T01:28:47.512Z,88.18
2022-11-24T01:31:15.813Z,88.17
2022-11-24T01:33:42.838Z,88.06
2022-11-24T01:36:09.966Z,88.06
2022-11-24T01:38:36.810Z,88.11
2022-11-24T01:41:15.441Z,88.08
2022-11-24T01:43:43.726Z,87.95
2022-11-24T01:46:19.719Z,87.98
2022-11-24T01:48:58.025Z,87.93
2022-11-24T01:51:29.367Z,87.90
2022-11-24T01:54:09.858Z,87.73
2022-11-24T01:56:40.475Z,87.91
2022-11-24T01:59:11.329Z,87.92
2022-11-24T02:01:38.224Z,87.70
2022-11-24T02:04:10.368Z,87.90
2022-11-24T02:06:39.339Z,87.76
2022-11-24T02:09:32.438Z,87.83
2022-11-24T02:12:01.030Z,87.84
2022-11-24T02:14:28.253Z,87.57
2022-11-24T02:16:55.138Z,87.85
2022-11-24T02:19:39.786Z,87.79
2022-11-24T02:22:21.556Z,87.88
2022-11-24T02:24:55.078Z,87.68
2022-11-24T02:27:22.100Z,87.70
2022-11-24T02:29:49.487Z,87.79
2022-11-24T02:32:16.765Z,87.63
2022-11-24T02:34:43.541Z,87.60
2022-11-24T02:37:10.465Z,87.29
2022-11-24T02:39:37.274Z,87.41
2022-11-24T02:42:08.396Z,87.60
2022-11-24T02:44:40.994Z,87.50
2022-11-24T02:47:10.177Z,87.46
2022-11-24T02:49:37.368Z,87.28
2022-11-24T02:52:04.697Z,87.42
2022-11-24T02:54:31.802Z,87.44
2022-11-24T02:56:59.192Z,87.30
2022-11-24T02:59:26.057Z,87.22
2022-11-24T03:01:53.032Z,87.22
2022-11-24T03:04:19.848Z,87.25
2022-11-24T03:06:46.665Z,87.27
2022-11-24T03:09:13.417Z,87.17
2022-11-24T03:11:40.558Z,87.08
2022-11-24T03:14:07.917Z,87.06
2022-11-24T03:16:35.148Z,87.01
2022-11-24T03:19:02.529Z,86.99
2022-11-24T03:21:29.565Z,87.03
2022-11-24T03:23:56.452Z,87.00
2022-11-24T03:26:25.435Z,86.93
2022-11-24T03:28:56.339Z,86.86
2022-11-24T03:31:24.424Z,86.90
2022-11-24T03:33:51.712Z,86.96
2022-11-24T03:36:18.815Z,86.93
2022-11-24T03:38:45.888Z,86.86
2022-11-24T03:41:12.824Z,86.78
2022-11-24T03:43:43.727Z,86.82
2022-11-24T03:46:12.187Z,86.85
2022-11-24T03:48:39.241Z,86.83
2022-11-24T03:51:06.348Z,86.83
2022-11-24T03:53:33.914Z,86.78
2022-11-24T03:56:02.236Z,86.70
2022-11-24T03:58:29.721Z,86.72
2022-11-24T04:00:57.067Z,86.64
2022-11-24T04:03:24.490Z,86.72
2022-11-24T04:05:51.648Z,86.70
2022-11-24T04:08:18.951Z,86.69
2022-11-24T04:10:50.865Z,86.69
2022-11-24T04:13:19.921Z,86.67
2022-11-24T04:15:46.780Z,86.55
2022-11-24T04:18:14.218Z,86.39
2022-11-24T04:20:42.154Z,86.38
2022-11-24T04:23:09.875Z,86.21
2022-11-24T04:25:37.393Z,86.29
2022-11-24T04:28:04.404Z,86.27
2022-11-24T04:30:31.478Z,86.33
2022-11-24T04:32:58.948Z,86.35
2022-11-24T04:35:25.765Z,86.20
2022-11-24T04:37:52.629Z,86.22
2022-11-24T04:40:20.092Z,86.29
2022-11-24T04:42:56.367Z,86.18
2022-11-24T04:45:23.937Z,86.35
2022-11-24T04:47:50.850Z,86.39
2022-11-24T04:50:17.896Z,86.38
2022-11-24T04:52:44.893Z,86.38
2022-11-24T04:55:12.231Z,86.23
2022-11-24T04:57:39.196Z,86.29
2022-11-24T05:00:07.717Z,86.30
2022-11-24T05:02:34.578Z,86.19
2022-11-24T05:05:01.428Z,86.20
2022-11-24T05:07:28.287Z,86.22
2022-11-24T05:10:13.549Z,86.29
2022-11-24T05:12:40.373Z,86.25
2022-11-24T05:15:08.054Z,86.24
2022-11-24T05:17:37.443Z,86.22
2022-11-24T05:20:06.527Z,86.22
2022-11-24T05:22:33.484Z,86.21
2022-11-24T05:25:00.259Z,86.19
2022-11-24T05:27:27.178Z,86.03
2022-11-24T05:29:53.954Z,85.95
2022-11-24T05:32:21.051Z,85.98
2022-11-24T05:34:48.077Z,85.87
2022-11-24T05:37:15.060Z,85.88
2022-11-24T05:39:41.825Z,85.72
2022-11-24T05:42:27.936Z,85.91
2022-11-24T05:44:54.845Z,85.76
2022-11-24T05:47:21.982Z,85.61
2022-11-24T05:49:48.873Z,85.99
2022-11-24T05:52:16.364Z,85.99
2022-11-24T05:54:43.292Z,85.90
2022-11-24T05:57:10.040Z,85.83
2022-11-24T05:59:36.856Z,85.80
2022-11-24T06:02:03.822Z,85.81
2022-11-24T06:04:31.405Z,85.71
2022-11-24T06:06:58.263Z,85.69
2022-11-24T06:09:25.061Z,85.82
2022-11-24T06:11:51.804Z,85.72
2022-11-24T06:14:18.619Z,85.73
2022-11-24T06:16:45.422Z,85.72
2022-11-24T06:19:12.367Z,85.80
2022-11-24T06:21:39.223Z,85.80
2022-11-24T06:24:06.558Z,85.71
2022-11-24T06:26:33.408Z,85.85
2022-11-24T06:29:00.445Z,85.81
2022-11-24T06:31:28.476Z,85.95
2022-11-24T06:33:55.481Z,85.76
2022-11-24T06:36:22.462Z,85.87
2022-11-24T06:38:49.302Z,85.93
2022-11-24T06:41:16.723Z,85.98
2022-11-24T06:43:44.137Z,85.93
2022-11-24T06:46:12.212Z,85.93
2022-11-24T06:48:39.508Z,85.97
2022-11-24T06:51:08.456Z,85.88
2022-11-24T06:53:38.072Z,85.93
2022-11-24T06:56:15.786Z,85.85
2022-11-24T06:58:49.327Z,85.88
2022-11-24T07:01:21.160Z,85.79
2022-11-24T07:03:48.836Z,85.85
2022-11-24T07:06:16.891Z,85.76
2022-11-24T07:08:43.987Z,85.66
2022-11-24T07:11:17.351Z,85.87
2022-11-24T07:13:45.125Z,85.86
2022-11-24T07:16:17.687Z,85.87
2022-11-24T07:18:45.851Z,85.85
2022-11-24T07:21:13.076Z,85.90
2022-11-24T07:23:40.432Z,85.98
2022-11-24T07:26:08.453Z,85.90
2022-11-24T07:28:36.824Z,85.93
2022-11-24T07:31:07.285Z,85.87
2022-11-24T07:33:34.492Z,85.90
2022-11-24T07:36:01.973Z,85.93
2022-11-24T07:38:29.854Z,85.97
2022-11-24T07:41:07.825Z,85.98
2022-11-24T07:43:36.269Z,85.81
2022-11-24T07:46:05.106Z,86.02
2022-11-24T07:48:32.301Z,86.03
2022-11-24T07:51:00.493Z,86.00
2022-11-24T07:53:27.954Z,86.03
2022-11-24T07:56:01.886Z,86.04
2022-11-24T07:58:32.724Z,86.03
2022-11-24T08:01:01.197Z,86.03
2022-11-24T08:03:28.174Z,86.11
2022-11-24T08:06:16.427Z,85.03
2022-11-24T08:08:42.814Z,86.38
2022-11-24T08:11:12.543Z,85.87
2022-11-24T08:13:40.023Z,85.84
2022-11-24T08:16:08.760Z,85.64
2022-11-24T08:18:37.293Z,85.72
2022-11-24T08:21:05.061Z,85.82
2022-11-24T08:23:32.214Z,85.80
2022-11-24T08:26:04.880Z,85.80
2022-11-24T08:28:32.565Z,85.71
2022-11-24T08:31:07.501Z,85.78
2022-11-24T08:33:34.635Z,85.86
2022-11-24T08:36:06.561Z,85.94
2022-11-24T08:38:33.571Z,85.76
2022-11-24T08:41:02.375Z,85.76
2022-11-24T08:43:29.637Z,85.71
2022-11-24T08:46:03.569Z,85.84
2022-11-24T08:48:30.986Z,85.80
2022-11-24T08:50:58.305Z,85.84
2022-11-24T08:53:26.044Z,85.86
2022-11-24T08:55:52.792Z,85.80
2022-11-24T08:58:19.694Z,85.86
2022-11-24T09:00:46.521Z,85.87
2022-11-24T09:03:14.373Z,85.94
2022-11-24T09:05:51.634Z,85.77
2022-11-24T09:08:19.243Z,85.81
2022-11-24T09:10:46.742Z,85.87
2022-11-24T09:13:13.698Z,85.87
2022-11-24T09:15:40.502Z,85.85
2022-11-24T09:18:07.404Z,85.77
2022-11-24T09:20:34.906Z,85.86
2022-11-24T09:23:01.833Z,85.82
2022-11-24T09:25:28.717Z,85.78
2022-11-24T09:27:56.481Z,85.79
2022-11-24T09:30:23.412Z,85.78
2022-11-24T09:32:50.267Z,85.82
2022-11-24T09:35:17.136Z,85.78
2022-11-24T09:37:45.746Z,85.79
2022-11-24T09:40:14.491Z,85.77
2022-11-24T09:43:03.309Z,85.74
2022-11-24T09:46:03.999Z,85.65
2022-11-24T09:48:32.472Z,85.82
2022-11-24T09:51:04.382Z,85.87
2022-11-24T09:53:39.406Z,85.94
2022-11-24T09:56:22.964Z,85.92
2022-11-24T09:58:58.946Z,85.96
2022-11-24T10:01:35.725Z,85.99
2022-11-24T10:04:06.423Z,85.98
2022-11-24T10:06:45.674Z,85.97
2022-11-24T10:09:46.455Z,86.03
2022-11-24T10:12:50.917Z,86.00
2022-11-24T10:15:22.481Z,86.13
2022-11-24T10:18:07.685Z,86.10
2022-11-24T10:21:02.828Z,86.09
2022-11-24T10:23:39.819Z,86.09
2022-11-24T10:26:33.081Z,86.17
2022-11-24T10:29:00.185Z,86.23
2022-11-24T10:31:36.971Z,86.21
2022-11-24T10:34:33.796Z,86.10
2022-11-24T10:37:13.257Z,86.15
2022-11-24T10:40:01.399Z,86.12
2022-11-24T10:42:31.506Z,86.09
2022-11-24T10:45:14.306Z,86.10
2022-11-24T10:47:43.049Z,86.12
2022-11-24T10:50:19.395Z,86.05
2022-11-24T10:52:51.689Z,86.08
2022-11-24T10:55:19.297Z,86.19
2022-11-24T10:57:48.451Z,86.27
2022-11-24T11:00:36.518Z,86.25
2022-11-24T11:03:20.750Z,86.22
2022-11-24T11:06:00.414Z,86.28
2022-11-24T11:08:30.353Z,86.32
2022-11-24T11:11:36.266Z,86.36
2022-11-24T11:14:05.532Z,86.33
2022-11-24T11:16:41.215Z,86.31
2022-11-24T11:19:48.478Z,86.32
2022-11-24T11:22:28.506Z,86.45
2022-11-24T11:25:19.365Z,86.57
2022-11-24T11:27:46.221Z,86.77
2022-11-24T11:35:51.232Z,86.87
2022-11-24T11:38:18.705Z,86.84
2022-11-24T11:40:48.700Z,87.10
2022-11-24T11:43:27.494Z,87.00
2022-11-24T11:46:03.628Z,87.12
2022-11-24T11:48:42.252Z,87.17
2022-11-24T11:51:23.481Z,87.15
2022-11-24T11:53:59.918Z,87.09
2022-11-24T11:56:35.245Z,87.16
2022-11-24T11:59:39.266Z,87.20
2022-11-24T12:02:53.928Z,87.41
2022-11-24T12:05:41.988Z,87.46
2022-11-24T12:09:11.720Z,87.70
2022-11-24T12:11:51.884Z,87.61
2022-11-24T12:14:39.529Z,87.67
2022-11-24T12:17:25.379Z,87.67
2022-11-24T12:20:17.108Z,87.75
2022-11-24T12:23:02.244Z,87.68
2022-11-24T12:25:36.290Z,87.98
2022-11-24T12:28:14.210Z,87.79
2022-11-24T12:31:09.671Z,88.00
2022-11-24T12:34:13.116Z,88.10
2022-11-24T12:37:04.585Z,88.15
2022-11-24T12:39:41.609Z,87.96
2022-11-24T12:42:24.600Z,88.14
2022-11-24T12:44:51.356Z,88.18
2022-11-24T12:47:30.997Z,88.05
2022-11-24T12:50:14.727Z,88.41
2022-11-24T12:52:54.129Z,87.97
2022-11-24T12:55:25.557Z,88.19
2022-11-24T12:58:07.736Z,88.20
2022-11-24T13:00:47.169Z,88.37
2022-11-24T13:03:31.762Z,88.15
2022-11-24T13:06:35.622Z,88.60
2022-11-24T13:09:10.758Z,88.75
2022-11-24T13:11:57.893Z,89.60
2022-11-24T13:14:31.949Z,88.89
2022-11-24T13:17:30.199Z,89.25
2022-11-24T13:20:19.203Z,89.08
2022-11-24T13:22:54.462Z,89.25
2022-11-24T13:25:30.046Z,88.97
2022-11-24T13:27:59.832Z,88.94
2022-11-24T13:30:35.683Z,89.78
2022-11-24T13:33:16.239Z,89.28
2022-11-24T13:36:02.240Z,90.02
2022-11-24T13:38:49.343Z,89.76
2022-11-24T13:41:31.332Z,90.18
2022-11-24T13:44:13.593Z,90.32
2022-11-24T13:47:05.808Z,90.23
2022-11-24T13:49:40.835Z,90.18
2022-11-24T13:52:38.315Z,89.87
2022-11-24T13:55:30.300Z,89.64
2022-11-24T13:58:05.161Z,89.87
2022-11-24T14:00:35.688Z,89.54
2022-11-24T14:04:28.779Z,89.32
2022-11-24T14:06:45.976Z,89.54
2022-11-24T14:09:23.548Z,89.87
2022-11-24T14:12:19.146Z,89.66
2022-11-24T14:14:55.717Z,89.95
2022-11-24T14:17:24.830Z,90.01
2022-11-24T14:19:53.582Z,89.86
2022-11-24T14:22:22.126Z,90.29
2022-11-24T14:24:57.318Z,90.23
2022-11-24T14:27:38.597Z,90.48
2022-11-24T14:30:19.701Z,90.51
2022-11-24T14:33:02.760Z,90.41
2022-11-24T14:35:35.341Z,90.56
2022-11-24T14:38:04.724Z,90.60
2022-11-24T14:40:50.055Z,90.40
2022-11-24T14:43:24.291Z,90.46
2022-11-24T14:45:57.512Z,90.42
2022-11-24T14:48:30.526Z,90.47
2022-11-24T14:51:19.861Z,90.47
2022-11-24T14:53:50.884Z,90.62
2022-11-24T14:56:30.029Z,90.76
2022-11-24T14:58:58.018Z,90.72
2022-11-24T15:01:27.812Z,90.88
2022-11-24T15:04:38.936Z,90.66
2022-11-24T15:07:25.734Z,90.70
2022-11-24T15:09:57.921Z,90.97
2022-11-24T15:12:34.361Z,90.82
2022-11-24T15:15:22.475Z,90.82
2022-11-24T15:17:57.966Z,90.93
2022-11-24T15:20:38.240Z,91.05
2022-11-24T15:23:32.213Z,91.17
2022-11-24T15:26:02.090Z,91.15
2022-11-24T15:28:30.861Z,91.23
2022-11-24T15:31:01.810Z,91.18
2022-11-24T15:33:29.760Z,91.09
2022-11-24T15:35:56.652Z,91.58
2022-11-24T15:38:23.770Z,91.35
2022-11-24T15:40:52.716Z,91.34
2022-11-24T15:43:31.950Z,91.43
2022-11-24T15:46:00.171Z,91.54
2022-11-24T15:48:27.352Z,91.30
2022-11-24T15:50:55.743Z,91.54
2022-11-24T15:53:33.175Z,91.34
2022-11-24T15:56:02.399Z,91.24
2022-11-24T15:58:29.220Z,91.35
2022-11-24T16:00:56.109Z,91.38
2022-11-24T16:06:19.104Z,91.60
2022-11-24T16:08:50.583Z,91.40
2022-11-24T16:11:17.367Z,91.37
2022-11-24T16:13:48.574Z,90.94
2022-11-24T16:16:19.510Z,91.18
2022-11-24T16:18:46.418Z,92.34
2022-11-24T16:21:13.296Z,91.79
2022-11-24T16:23:40.542Z,91.51
2022-11-24T16:26:07.545Z,91.43
2022-11-24T16:28:34.470Z,91.19
2022-11-24T16:31:01.579Z,91.23
2022-11-24T16:33:29.976Z,91.21
2022-11-24T16:35:57.059Z,91.37
2022-11-24T16:38:24.052Z,91.36
2022-11-24T16:40:52.527Z,91.73
2022-11-24T16:43:19.833Z,91.53
2022-11-24T16:45:46.747Z,91.45
2022-11-24T16:48:13.605Z,91.81
2022-11-24T16:50:40.460Z,91.56
2022-11-24T16:53:07.332Z,91.05
2022-11-24T16:55:34.151Z,91.08
2022-11-24T16:58:03.486Z,91.11
2022-11-24T17:00:30.314Z,91.39
2022-11-24T17:02:57.144Z,91.51
2022-11-24T17:05:24.538Z,91.30
2022-11-24T17:07:51.419Z,91.31
2022-11-24T17:10:18.319Z,91.10
2022-11-24T17:12:45.075Z,91.17
2022-11-24T17:18:23.416Z,91.50
2022-11-24T17:20:45.823Z,91.00
2022-11-24T17:23:12.641Z,91.17
2022-11-24T17:25:39.634Z,91.21
2022-11-24T17:28:06.415Z,90.98
2022-11-24T17:30:33.633Z,91.48
2022-11-24T17:33:00.410Z,91.38
2022-11-24T17:35:27.294Z,91.31
2022-11-24T17:37:54.043Z,91.36
2022-11-24T17:40:28.241Z,91.60
2022-11-24T17:43:00.057Z,91.37
2022-11-24T17:45:28.673Z,91.82
2022-11-24T17:47:56.380Z,92.01
2022-11-24T17:50:26.090Z,91.83
2022-11-24T17:52:54.259Z,92.09
2022-11-24T17:55:21.415Z,92.18
2022-11-24T17:57:48.220Z,94.10
2022-11-24T18:00:15.469Z,93.09
2022-11-24T18:02:42.388Z,92.85
2022-11-24T18:05:09.361Z,92.93
2022-11-24T18:07:36.993Z,92.91
2022-11-24T18:10:04.319Z,92.96
2022-11-24T18:12:32.094Z,92.89
2022-11-24T18:14:59.075Z,92.94
2022-11-24T18:17:26.041Z,92.77
2022-11-24T18:19:52.816Z,92.72
2022-11-24T18:22:36.669Z,92.52
2022-11-24T18:25:07.176Z,92.51
2022-11-24T18:27:33.996Z,92.47
2022-11-24T18:30:00.959Z,92.50
2022-11-24T18:32:27.871Z,92.42
2022-11-24T18:34:54.934Z,92.32
2022-11-24T18:37:21.672Z,92.14
2022-11-24T18:39:48.469Z,92.37
2022-11-24T18:42:16.804Z,92.23
2022-11-24T18:44:45.449Z,92.24
2022-11-24T18:47:14.481Z,92.11
2022-11-24T18:49:41.336Z,92.08
2022-11-24T18:52:08.439Z,92.03
2022-11-24T18:54:35.365Z,92.19
2022-11-24T18:57:03.718Z,92.09
2022-11-24T18:59:30.795Z,92.01
2022-11-24T19:01:58.194Z,92.21
2022-11-24T19:04:26.230Z,92.17
2022-11-24T19:06:53.132Z,92.24
2022-11-24T19:09:22.573Z,92.23
2022-11-24T19:11:49.453Z,92.26
2022-11-24T19:14:17.882Z,92.16
2022-11-24T19:16:48.124Z,92.27
2022-11-24T19:19:16.965Z,92.18
2022-11-24T19:21:44.274Z,92.38
2022-11-24T19:24:11.788Z,92.38
2022-11-24T19:26:39.135Z,92.34
2022-11-24T19:29:07.310Z,92.22
2022-11-24T19:31:35.131Z,92.16
2022-11-24T19:34:03.123Z,92.24
2022-11-24T19:36:30.130Z,92.07
2022-11-24T19:38:58.265Z,92.01
2022-11-24T19:41:31.444Z,91.88
2022-11-24T19:43:58.819Z,91.96
2022-11-24T19:46:27.962Z,91.85
2022-11-24T19:48:57.263Z,92.02
2022-11-24T19:51:30.842Z,91.92
2022-11-24T19:53:58.182Z,91.94
2022-11-24T19:56:27.565Z,92.01
2022-11-24T19:58:55.347Z,92.08
2022-11-24T20:01:30.667Z,92.13
2022-11-24T20:04:02.981Z,92.05
2022-11-24T20:06:32.579Z,92.04
2022-11-24T20:09:00.700Z,92.04
2022-11-24T20:11:28.308Z,91.99
2022-11-24T20:13:55.874Z,92.15
2022-11-24T20:16:29.753Z,92.10
2022-11-24T20:19:01.565Z,92.13
2022-11-24T20:21:33.122Z,91.98
2022-11-24T20:24:06.136Z,91.98
2022-11-24T20:26:35.694Z,91.98
2022-11-24T20:29:04.035Z,91.96
2022-11-24T20:31:33.919Z,91.92
2022-11-24T20:34:02.551Z,91.84
2022-11-24T20:36:30.865Z,91.85
2022-11-24T20:39:00.624Z,91.87
2022-11-24T20:41:29.801Z,91.79
2022-11-24T20:43:59.904Z,91.81
2022-11-24T20:46:29.375Z,91.89
2022-11-24T20:48:57.007Z,91.80
2022-11-24T20:51:26.311Z,91.65
2022-11-24T20:53:55.959Z,91.69
2022-11-24T20:56:28.680Z,91.66
2022-11-24T20:58:56.421Z,91.69
2022-11-24T21:01:55.359Z,91.63
2022-11-24T21:04:25.528Z,91.79
2022-11-24T21:06:52.313Z,91.76
2022-11-24T21:09:19.288Z,91.72
2022-11-24T21:11:46.554Z,91.71
2022-11-24T21:14:13.509Z,91.78
2022-11-24T21:16:41.395Z,91.69
2022-11-24T21:19:12.240Z,91.65
2022-11-24T21:21:41.099Z,91.70
2022-11-24T21:24:14.410Z,91.74
2022-11-24T21:26:42.596Z,91.69
2022-11-24T21:29:12.169Z,91.71
2022-11-24T21:31:39.398Z,91.68
2022-11-24T21:34:07.413Z,91.61
2022-11-24T21:36:35.512Z,91.55
2022-11-24T21:39:03.823Z,91.63
2022-11-24T21:41:33.034Z,91.55
2022-11-24T21:43:59.961Z,91.43
2022-11-24T21:46:28.533Z,91.43
2022-11-24T21:48:55.448Z,91.39
2022-11-24T21:51:22.356Z,91.34
2022-11-24T21:53:49.191Z,91.27
2022-11-24T21:56:18.569Z,91.26
2022-11-24T21:58:47.350Z,91.27
2022-11-24T22:01:15.581Z,91.02
2022-11-24T22:03:42.589Z,91.07
2022-11-24T22:06:09.863Z,90.88
2022-11-24T22:08:36.780Z,90.70
2022-11-24T22:11:10.206Z,90.79
2022-11-24T22:13:37.374Z,90.66
2022-11-24T22:16:09.789Z,90.67
2022-11-24T22:18:39.267Z,90.63
2022-11-24T22:21:07.989Z,90.32
2022-11-24T22:23:36.199Z,90.20
2022-11-24T22:26:08.649Z,90.20
2022-11-24T22:28:36.326Z,90.15
2022-11-24T22:31:07.859Z,89.98
2022-11-24T22:33:34.786Z,89.92
2022-11-24T22:36:02.034Z,90.00
2022-11-24T22:38:30.531Z,89.75
2022-11-24T22:41:08.796Z,89.77
2022-11-24T22:43:37.223Z,89.71
2022-11-24T22:46:15.863Z,89.67
2022-11-24T22:48:43.820Z,89.66
2022-11-24T22:51:21.983Z,89.46
2022-11-24T22:53:50.891Z,89.54
2022-11-24T22:56:18.468Z,89.44
2022-11-24T22:58:45.664Z,89.35
2022-11-24T23:01:15.863Z,89.33
2022-11-24T23:03:43.724Z,89.29
2022-11-24T23:06:15.809Z,89.28
2022-11-24T23:08:43.058Z,89.08
2022-11-24T23:11:13.353Z,88.92
2022-11-24T23:13:40.677Z,88.78
2022-11-24T23:16:13.525Z,88.98
2022-11-24T23:18:40.813Z,88.74
2022-11-24T23:21:09.120Z,88.80
2022-11-24T23:23:36.085Z,88.88
2022-11-24T23:26:04.855Z,88.86
2022-11-24T23:28:31.957Z,88.85
2022-11-24T23:31:06.986Z,88.88
2022-11-24T23:33:34.361Z,88.83
2022-11-24T23:36:09.616Z,88.54
2022-11-24T23:38:37.069Z,88.48
2022-11-24T23:41:06.294Z,88.64
2022-11-24T23:43:34.236Z,88.48
2022-11-24T23:46:03.239Z,88.68
2022-11-24T23:48:30.575Z,88.67
2022-11-24T23:50:57.555Z,88.57
2022-11-24T23:53:24.413Z,88.60
2022-11-24T23:55:55.177Z,88.54
2022-11-24T23:58:23.028Z,88.62
